sensor_id;sensor_type;location;lat;lon;timestamp;temperature;humidity
75786;DHT22;64402;44.708;37.644;2023-04-03T00:00:52;12.11;79.44
75786;DHT22;64402;44.708;37.644;2023-04-03T00:03:19;12.13;79.42
75786;DHT22;64402;44.708;37.644;2023-04-03T00:05:47;12.14;79.49
75786;DHT22;64402;44.708;37.644;2023-04-03T00:08:14;12.19;79.37
75786;DHT22;64402;44.708;37.644;2023-04-03T00:10:40;12.20;79.60
75786;DHT22;64402;44.708;37.644;2023-04-03T00:13:06;12.19;79.71
75786;DHT22;64402;44.708;37.644;2023-04-03T00:15:34;12.17;79.85
75786;DHT22;64402;44.708;37.644;2023-04-03T00:18:00;12.14;80.10
75786;DHT22;64402;44.708;37.644;2023-04-03T00:20:27;12.14;80.24
75786;DHT22;64402;44.708;37.644;2023-04-03T00:22:53;12.04;80.61
75786;DHT22;64402;44.708;37.644;2023-04-03T00:25:20;12.03;80.92
75786;DHT22;64402;44.708;37.644;2023-04-03T00:27:46;12.01;81.08
75786;DHT22;64402;44.708;37.644;2023-04-03T00:30:14;12.03;81.32
75786;DHT22;64402;44.708;37.644;2023-04-03T00:32:41;12.08;80.85
75786;DHT22;64402;44.708;37.644;2023-04-03T00:35:07;12.10;81.03
75786;DHT22;64402;44.708;37.644;2023-04-03T00:37:34;12.08;80.91
75786;DHT22;64402;44.708;37.644;2023-04-03T00:40:00;12.06;81.05
75786;DHT22;64402;44.708;37.644;2023-04-03T00:42:26;12.04;81.11
75786;DHT22;64402;44.708;37.644;2023-04-03T00:47:18;11.98;81.23
75786;DHT22;64402;44.708;37.644;2023-04-03T00:49:45;11.94;81.62
75786;DHT22;64402;44.708;37.644;2023-04-03T00:52:16;11.89;82.14
75786;DHT22;64402;44.708;37.644;2023-04-03T00:54:45;11.88;82.25
75786;DHT22;64402;44.708;37.644;2023-04-03T00:57:12;11.84;82.46
75786;DHT22;64402;44.708;37.644;2023-04-03T00:59:42;11.81;82.87
75786;DHT22;64402;44.708;37.644;2023-04-03T01:02:10;11.78;83.25
75786;DHT22;64402;44.708;37.644;2023-04-03T01:04:39;11.77;83.48
75786;DHT22;64402;44.708;37.644;2023-04-03T01:07:23;11.74;84.10
75786;DHT22;64402;44.708;37.644;2023-04-03T01:09:53;11.74;83.95
75786;DHT22;64402;44.708;37.644;2023-04-03T01:12:30;11.73;84.36
75786;DHT22;64402;44.708;37.644;2023-04-03T01:14:58;11.74;84.50
75786;DHT22;64402;44.708;37.644;2023-04-03T01:17:33;11.74;84.59
75786;DHT22;64402;44.708;37.644;2023-04-03T01:22:43;11.72;84.84
75786;DHT22;64402;44.708;37.644;2023-04-03T01:25:12;11.67;84.93
75786;DHT22;64402;44.708;37.644;2023-04-03T01:27:38;11.66;85.11
75786;DHT22;64402;44.708;37.644;2023-04-03T01:30:05;11.66;85.36
75786;DHT22;64402;44.708;37.644;2023-04-03T01:32:31;11.63;85.45
75786;DHT22;64402;44.708;37.644;2023-04-03T01:34:57;11.64;85.57
75786;DHT22;64402;44.708;37.644;2023-04-03T01:37:23;11.64;85.63
75786;DHT22;64402;44.708;37.644;2023-04-03T01:39:50;11.64;85.65
75786;DHT22;64402;44.708;37.644;2023-04-03T01:42:17;11.64;85.83
75786;DHT22;64402;44.708;37.644;2023-04-03T01:44:43;11.63;85.95
75786;DHT22;64402;44.708;37.644;2023-04-03T01:47:10;11.62;86.08
75786;DHT22;64402;44.708;37.644;2023-04-03T01:49:36;11.62;86.13
75786;DHT22;64402;44.708;37.644;2023-04-03T01:52:03;11.61;86.32
75786;DHT22;64402;44.708;37.644;2023-04-03T01:54:29;11.60;86.38
75786;DHT22;64402;44.708;37.644;2023-04-03T01:56:57;11.59;86.35
75786;DHT22;64402;44.708;37.644;2023-04-03T01:59:23;11.59;86.06
75786;DHT22;64402;44.708;37.644;2023-04-03T02:01:50;11.62;86.22
75786;DHT22;64402;44.708;37.644;2023-04-03T02:04:16;11.60;86.29
75786;DHT22;64402;44.708;37.644;2023-04-03T02:06:42;11.58;86.48
75786;DHT22;64402;44.708;37.644;2023-04-03T02:09:08;11.56;86.70
75786;DHT22;64402;44.708;37.644;2023-04-03T02:11:34;11.58;85.93
75786;DHT22;64402;44.708;37.644;2023-04-03T02:14:01;11.58;86.69
75786;DHT22;64402;44.708;37.644;2023-04-03T02:16:27;11.54;86.76
75786;DHT22;64402;44.708;37.644;2023-04-03T02:18:54;11.57;86.21
75786;DHT22;64402;44.708;37.644;2023-04-03T02:21:20;11.58;86.79
75786;DHT22;64402;44.708;37.644;2023-04-03T02:23:47;11.56;86.88
75786;DHT22;64402;44.708;37.644;2023-04-03T02:26:15;11.61;86.75
75786;DHT22;64402;44.708;37.644;2023-04-03T02:28:41;11.61;87.13
75786;DHT22;64402;44.708;37.644;2023-04-03T02:31:09;11.58;87.35
75786;DHT22;64402;44.708;37.644;2023-04-03T02:33:36;11.55;87.40
75786;DHT22;64402;44.708;37.644;2023-04-03T02:36:04;11.56;86.96
75786;DHT22;64402;44.708;37.644;2023-04-03T02:38:32;11.61;86.86
75786;DHT22;64402;44.708;37.644;2023-04-03T02:41:07;11.63;86.80
75786;DHT22;64402;44.708;37.644;2023-04-03T02:43:33;11.66;86.61
75786;DHT22;64402;44.708;37.644;2023-04-03T02:46:00;11.64;86.58
75786;DHT22;64402;44.708;37.644;2023-04-03T02:48:27;11.67;86.51
75786;DHT22;64402;44.708;37.644;2023-04-03T02:50:53;11.63;87.13
75786;DHT22;64402;44.708;37.644;2023-04-03T02:53:19;11.64;86.01
75786;DHT22;64402;44.708;37.644;2023-04-03T02:55:46;11.66;86.44
75786;DHT22;64402;44.708;37.644;2023-04-03T02:58:12;11.60;86.67
75786;DHT22;64402;44.708;37.644;2023-04-03T03:00:38;11.59;86.26
75786;DHT22;64402;44.708;37.644;2023-04-03T03:03:04;11.59;85.96
75786;DHT22;64402;44.708;37.644;2023-04-03T03:05:30;11.59;85.16
75786;DHT22;64402;44.708;37.644;2023-04-03T03:07:57;11.59;85.96
75786;DHT22;64402;44.708;37.644;2023-04-03T03:10:23;11.57;86.90
75786;DHT22;64402;44.708;37.644;2023-04-03T03:12:49;11.55;87.71
75786;DHT22;64402;44.708;37.644;2023-04-03T03:15:15;11.51;88.27
75786;DHT22;64402;44.708;37.644;2023-04-03T03:17:43;11.48;87.14
75786;DHT22;64402;44.708;37.644;2023-04-03T03:20:10;11.49;87.86
75786;DHT22;64402;44.708;37.644;2023-04-03T03:22:37;11.52;86.55
75786;DHT22;64402;44.708;37.644;2023-04-03T03:25:03;11.52;85.55
75786;DHT22;64402;44.708;37.644;2023-04-03T03:27:30;11.55;86.09
75786;DHT22;64402;44.708;37.644;2023-04-03T03:29:56;11.45;88.80
75786;DHT22;64402;44.708;37.644;2023-04-03T03:32:22;11.38;89.63
75786;DHT22;64402;44.708;37.644;2023-04-03T03:34:48;11.33;88.96
75786;DHT22;64402;44.708;37.644;2023-04-03T03:37:14;11.34;88.84
75786;DHT22;64402;44.708;37.644;2023-04-03T03:39:40;11.39;88.27
75786;DHT22;64402;44.708;37.644;2023-04-03T03:42:06;11.37;89.04
75786;DHT22;64402;44.708;37.644;2023-04-03T03:44:32;11.40;87.32
75786;DHT22;64402;44.708;37.644;2023-04-03T03:46:59;11.47;86.89
75786;DHT22;64402;44.708;37.644;2023-04-03T03:49:25;11.48;86.90
75786;DHT22;64402;44.708;37.644;2023-04-03T03:51:52;11.48;87.75
75786;DHT22;64402;44.708;37.644;2023-04-03T03:54:18;11.51;87.02
75786;DHT22;64402;44.708;37.644;2023-04-03T03:56:44;11.53;87.39
75786;DHT22;64402;44.708;37.644;2023-04-03T03:59:12;11.56;87.22
75786;DHT22;64402;44.708;37.644;2023-04-03T04:01:38;11.55;88.30
75786;DHT22;64402;44.708;37.644;2023-04-03T04:04:05;11.51;87.96
75786;DHT22;64402;44.708;37.644;2023-04-03T04:06:31;11.53;87.42
75786;DHT22;64402;44.708;37.644;2023-04-03T04:08:57;11.53;88.19
75786;DHT22;64402;44.708;37.644;2023-04-03T04:11:23;11.46;87.52
75786;DHT22;64402;44.708;37.644;2023-04-03T04:13:49;11.49;86.29
75786;DHT22;64402;44.708;37.644;2023-04-03T04:16:15;11.48;86.17
75786;DHT22;64402;44.708;37.644;2023-04-03T04:18:41;11.48;86.23
75786;DHT22;64402;44.708;37.644;2023-04-03T04:21:07;11.46;87.77
75786;DHT22;64402;44.708;37.644;2023-04-03T04:23:33;11.42;88.30
75786;DHT22;64402;44.708;37.644;2023-04-03T04:25:59;11.37;88.18
75786;DHT22;64402;44.708;37.644;2023-04-03T04:28:26;11.42;87.77
75786;DHT22;64402;44.708;37.644;2023-04-03T04:30:52;11.47;88.02
75786;DHT22;64402;44.708;37.644;2023-04-03T04:33:18;11.47;87.50
75786;DHT22;64402;44.708;37.644;2023-04-03T04:35:44;11.47;87.25
75786;DHT22;64402;44.708;37.644;2023-04-03T04:38:12;11.51;86.34
75786;DHT22;64402;44.708;37.644;2023-04-03T04:40:38;11.51;85.80
75786;DHT22;64402;44.708;37.644;2023-04-03T04:43:04;11.51;84.93
75786;DHT22;64402;44.708;37.644;2023-04-03T04:45:31;11.55;84.68
75786;DHT22;64402;44.708;37.644;2023-04-03T04:47:57;11.61;83.81
75786;DHT22;64402;44.708;37.644;2023-04-03T04:50:23;11.64;83.99
75786;DHT22;64402;44.708;37.644;2023-04-03T04:52:50;11.64;83.43
75786;DHT22;64402;44.708;37.644;2023-04-03T04:55:16;11.68;82.49
75786;DHT22;64402;44.708;37.644;2023-04-03T04:57:42;11.77;81.59
75786;DHT22;64402;44.708;37.644;2023-04-03T05:00:09;11.73;83.65
75786;DHT22;64402;44.708;37.644;2023-04-03T05:02:36;11.59;83.86
75786;DHT22;64402;44.708;37.644;2023-04-03T05:05:03;11.55;82.94
75786;DHT22;64402;44.708;37.644;2023-04-03T05:07:29;11.56;83.81
75786;DHT22;64402;44.708;37.644;2023-04-03T05:09:56;11.52;83.49
75786;DHT22;64402;44.708;37.644;2023-04-03T05:12:22;11.55;82.94
75786;DHT22;64402;44.708;37.644;2023-04-03T05:14:49;11.61;81.93
75786;DHT22;64402;44.708;37.644;2023-04-03T05:17:15;11.73;81.55
75786;DHT22;64402;44.708;37.644;2023-04-03T05:19:42;11.82;80.46
75786;DHT22;64402;44.708;37.644;2023-04-03T05:22:08;11.90;80.41
75786;DHT22;64402;44.708;37.644;2023-04-03T05:24:34;12.04;79.20
75786;DHT22;64402;44.708;37.644;2023-04-03T05:27:01;12.13;79.24
75786;DHT22;64402;44.708;37.644;2023-04-03T05:29:27;12.30;79.03
75786;DHT22;64402;44.708;37.644;2023-04-03T05:31:54;12.45;78.03
75786;DHT22;64402;44.708;37.644;2023-04-03T05:34:21;12.56;79.14
75786;DHT22;64402;44.708;37.644;2023-04-03T05:36:51;12.73;77.70
75786;DHT22;64402;44.708;37.644;2023-04-03T05:39:17;12.85;77.01
75786;DHT22;64402;44.708;37.644;2023-04-03T05:41:43;13.00;77.08
75786;DHT22;64402;44.708;37.644;2023-04-03T05:44:10;13.08;75.46
75786;DHT22;64402;44.708;37.644;2023-04-03T05:46:36;13.12;75.03
75786;DHT22;64402;44.708;37.644;2023-04-03T05:49:03;13.27;75.33
75786;DHT22;64402;44.708;37.644;2023-04-03T05:51:34;13.29;74.73
75786;DHT22;64402;44.708;37.644;2023-04-03T05:54:24;13.33;73.99
75786;DHT22;64402;44.708;37.644;2023-04-03T05:56:51;13.45;73.49
75786;DHT22;64402;44.708;37.644;2023-04-03T05:59:18;13.58;72.61
75786;DHT22;64402;44.708;37.644;2023-04-03T06:01:44;13.70;71.37
75786;DHT22;64402;44.708;37.644;2023-04-03T06:04:11;13.90;71.06
75786;DHT22;64402;44.708;37.644;2023-04-03T06:06:49;14.07;69.62
75786;DHT22;64402;44.708;37.644;2023-04-03T06:09:19;14.10;69.98
75786;DHT22;64402;44.708;37.644;2023-04-03T06:11:46;14.13;70.12
75786;DHT22;64402;44.708;37.644;2023-04-03T06:14:12;14.08;71.71
75786;DHT22;64402;44.708;37.644;2023-04-03T06:16:39;13.89;73.14
75786;DHT22;64402;44.708;37.644;2023-04-03T06:19:07;13.56;73.89
75786;DHT22;64402;44.708;37.644;2023-04-03T06:21:34;13.43;74.23
75786;DHT22;64402;44.708;37.644;2023-04-03T06:24:02;13.35;74.99
75786;DHT22;64402;44.708;37.644;2023-04-03T06:26:29;13.29;74.34
75786;DHT22;64402;44.708;37.644;2023-04-03T06:28:55;13.12;73.85
75786;DHT22;64402;44.708;37.644;2023-04-03T06:31:22;13.07;72.40
75786;DHT22;64402;44.708;37.644;2023-04-03T06:33:48;13.15;72.78
75786;DHT22;64402;44.708;37.644;2023-04-03T06:36:17;13.47;72.37
75786;DHT22;64402;44.708;37.644;2023-04-03T06:38:46;13.60;72.28
75786;DHT22;64402;44.708;37.644;2023-04-03T06:41:13;13.75;71.45
75786;DHT22;64402;44.708;37.644;2023-04-03T06:43:39;13.83;70.45
75786;DHT22;64402;44.708;37.644;2023-04-03T06:46:06;14.05;70.67
75786;DHT22;64402;44.708;37.644;2023-04-03T06:48:32;14.19;68.40
75786;DHT22;64402;44.708;37.644;2023-04-03T06:50:58;14.37;69.67
75786;DHT22;64402;44.708;37.644;2023-04-03T06:53:25;14.20;67.82
75786;DHT22;64402;44.708;37.644;2023-04-03T06:55:51;14.19;69.49
75786;DHT22;64402;44.708;37.644;2023-04-03T06:58:18;14.20;69.83
75786;DHT22;64402;44.708;37.644;2023-04-03T07:00:44;14.08;67.51
75786;DHT22;64402;44.708;37.644;2023-04-03T07:03:10;14.19;70.34
75786;DHT22;64402;44.708;37.644;2023-04-03T07:05:36;14.18;68.46
75786;DHT22;64402;44.708;37.644;2023-04-03T07:08:02;14.21;69.54
75786;DHT22;64402;44.708;37.644;2023-04-03T07:10:28;14.24;68.35
75786;DHT22;64402;44.708;37.644;2023-04-03T07:12:54;14.43;68.68
75786;DHT22;64402;44.708;37.644;2023-04-03T07:15:20;14.55;67.11
75786;DHT22;64402;44.708;37.644;2023-04-03T07:17:46;14.69;66.71
75786;DHT22;64402;44.708;37.644;2023-04-03T07:20:13;14.69;66.72
75786;DHT22;64402;44.708;37.644;2023-04-03T07:22:39;14.65;68.27
75786;DHT22;64402;44.708;37.644;2023-04-03T07:25:05;14.70;68.64
75786;DHT22;64402;44.708;37.644;2023-04-03T07:27:33;14.65;67.43
75786;DHT22;64402;44.708;37.644;2023-04-03T07:29:59;14.78;68.42
75786;DHT22;64402;44.708;37.644;2023-04-03T07:32:25;14.91;68.77
75786;DHT22;64402;44.708;37.644;2023-04-03T07:34:51;14.88;67.96
75786;DHT22;64402;44.708;37.644;2023-04-03T07:37:17;14.87;67.65
75786;DHT22;64402;44.708;37.644;2023-04-03T07:39:44;15.06;68.05
75786;DHT22;64402;44.708;37.644;2023-04-03T07:42:10;16.39;62.86
75786;DHT22;64402;44.708;37.644;2023-04-03T07:44:38;17.45;59.24
75786;DHT22;64402;44.708;37.644;2023-04-03T07:47:04;18.57;56.60
75786;DHT22;64402;44.708;37.644;2023-04-03T07:49:30;19.41;53.32
75786;DHT22;64402;44.708;37.644;2023-04-03T07:51:57;19.84;52.21
75786;DHT22;64402;44.708;37.644;2023-04-03T07:54:24;20.14;51.56
75786;DHT22;64402;44.708;37.644;2023-04-03T07:56:50;20.48;49.50
75786;DHT22;64402;44.708;37.644;2023-04-03T07:59:16;20.61;50.15
75786;DHT22;64402;44.708;37.644;2023-04-03T08:01:42;21.18;48.49
75786;DHT22;64402;44.708;37.644;2023-04-03T08:04:09;21.79;47.16
75786;DHT22;64402;44.708;37.644;2023-04-03T08:06:35;22.09;47.00
75786;DHT22;64402;44.708;37.644;2023-04-03T08:09:03;21.59;46.02
75786;DHT22;64402;44.708;37.644;2023-04-03T08:11:29;21.93;45.28
75786;DHT22;64402;44.708;37.644;2023-04-03T08:13:56;21.92;43.43
75786;DHT22;64402;44.708;37.644;2023-04-03T08:16:23;22.65;42.61
75786;DHT22;64402;44.708;37.644;2023-04-03T08:18:52;22.97;42.24
75786;DHT22;64402;44.708;37.644;2023-04-03T08:21:19;22.58;43.00
75786;DHT22;64402;44.708;37.644;2023-04-03T08:23:48;22.51;43.45
75786;DHT22;64402;44.708;37.644;2023-04-03T08:26:19;23.22;41.49
75786;DHT22;64402;44.708;37.644;2023-04-03T08:28:47;23.89;41.29
75786;DHT22;64402;44.708;37.644;2023-04-03T08:31:16;23.29;42.07
75786;DHT22;64402;44.708;37.644;2023-04-03T08:33:44;22.75;43.17
75786;DHT22;64402;44.708;37.644;2023-04-03T08:36:20;22.73;42.71
75786;DHT22;64402;44.708;37.644;2023-04-03T08:38:47;23.37;41.03
75786;DHT22;64402;44.708;37.644;2023-04-03T08:41:20;23.53;41.62
75786;DHT22;64402;44.708;37.644;2023-04-03T08:46:16;24.72;37.37
75786;DHT22;64402;44.708;37.644;2023-04-03T08:48:44;24.40;38.73
75786;DHT22;64402;44.708;37.644;2023-04-03T08:51:20;24.60;38.75
75786;DHT22;64402;44.708;37.644;2023-04-03T08:54:02;24.97;38.54
75786;DHT22;64402;44.708;37.644;2023-04-03T08:56:31;24.71;39.81
75786;DHT22;64402;44.708;37.644;2023-04-03T08:59:03;24.39;39.96
75786;DHT22;64402;44.708;37.644;2023-04-03T09:01:39;24.32;40.19
75786;DHT22;64402;44.708;37.644;2023-04-03T09:04:12;25.24;39.10
75786;DHT22;64402;44.708;37.644;2023-04-03T09:06:39;25.67;37.85
75786;DHT22;64402;44.708;37.644;2023-04-03T09:09:12;26.23;36.11
75786;DHT22;64402;44.708;37.644;2023-04-03T09:11:55;25.60;36.48
75786;DHT22;64402;44.708;37.644;2023-04-03T09:20:06;20.42;50.05
75786;DHT22;64402;44.708;37.644;2023-04-03T09:22:38;19.83;52.26
75786;DHT22;64402;44.708;37.644;2023-04-03T09:25:14;19.03;53.97
75786;DHT22;64402;44.708;37.644;2023-04-03T09:27:41;18.89;53.93
75786;DHT22;64402;44.708;37.644;2023-04-03T09:30:20;18.00;57.40
75786;DHT22;64402;44.708;37.644;2023-04-03T09:32:49;17.30;59.39
75786;DHT22;64402;44.708;37.644;2023-04-03T09:35:33;17.56;59.44
75786;DHT22;64402;44.708;37.644;2023-04-03T09:38:02;17.22;59.90
75786;DHT22;64402;44.708;37.644;2023-04-03T09:40:42;17.11;59.99
75786;DHT22;64402;44.708;37.644;2023-04-03T09:43:28;17.07;61.18
75786;DHT22;64402;44.708;37.644;2023-04-03T09:46:24;17.64;58.60
75786;DHT22;64402;44.708;37.644;2023-04-03T09:49:02;17.67;58.51
75786;DHT22;64402;44.708;37.644;2023-04-03T09:51:30;17.50;59.09
75786;DHT22;64402;44.708;37.644;2023-04-03T09:53:57;17.32;59.53
75786;DHT22;64402;44.708;37.644;2023-04-03T09:56:27;17.33;59.28
75786;DHT22;64402;44.708;37.644;2023-04-03T10:01:32;16.81;59.41
75786;DHT22;64402;44.708;37.644;2023-04-03T10:04:18;16.89;60.51
75786;DHT22;64402;44.708;37.644;2023-04-03T10:06:53;17.00;60.25
75786;DHT22;64402;44.708;37.644;2023-04-03T10:09:31;17.06;59.52
75786;DHT22;64402;44.708;37.644;2023-04-03T10:11:59;16.43;61.98
75786;DHT22;64402;44.708;37.644;2023-04-03T10:14:28;16.39;63.21
75786;DHT22;64402;44.708;37.644;2023-04-03T10:22:21;16.36;62.91
75786;DHT22;64402;44.708;37.644;2023-04-03T10:37:05;16.17;63.53
75786;DHT22;64402;44.708;37.644;2023-04-03T10:39:40;16.50;63.29
75786;DHT22;64402;44.708;37.644;2023-04-03T10:52:58;15.80;65.00
75786;DHT22;64402;44.708;37.644;2023-04-03T10:58:18;15.89;63.42
75786;DHT22;64402;44.708;37.644;2023-04-03T11:00:49;16.18;63.76
75786;DHT22;64402;44.708;37.644;2023-04-03T11:06:10;15.41;66.60
75786;DHT22;64402;44.708;37.644;2023-04-03T11:11:17;15.10;68.73
75786;DHT22;64402;44.708;37.644;2023-04-03T11:16:30;15.06;68.39
75786;DHT22;64402;44.708;37.644;2023-04-03T11:19:15;14.97;68.66
75786;DHT22;64402;44.708;37.644;2023-04-03T11:21:54;14.89;68.09
75786;DHT22;64402;44.708;37.644;2023-04-03T11:24:25;14.79;68.91
75786;DHT22;64402;44.708;37.644;2023-04-03T11:26:55;14.60;70.08
75786;DHT22;64402;44.708;37.644;2023-04-03T11:29:26;14.37;71.22
75786;DHT22;64402;44.708;37.644;2023-04-03T11:36:59;14.19;72.52
75786;DHT22;64402;44.708;37.644;2023-04-03T11:39:35;14.18;72.77
75786;DHT22;64402;44.708;37.644;2023-04-03T11:44:46;14.11;73.10
75786;DHT22;64402;44.708;37.644;2023-04-03T11:47:49;14.32;72.51
75786;DHT22;64402;44.708;37.644;2023-04-03T12:00:58;14.79;70.94
75786;DHT22;64402;44.708;37.644;2023-04-03T12:16:06;14.19;73.24
75786;DHT22;64402;44.708;37.644;2023-04-03T12:18:48;14.21;73.93
75786;DHT22;64402;44.708;37.644;2023-04-03T12:22:23;14.21;74.08
75786;DHT22;64402;44.708;37.644;2023-04-03T12:24:28;14.39;73.45
75786;DHT22;64402;44.708;37.644;2023-04-03T12:27:01;14.69;72.25
75786;DHT22;64402;44.708;37.644;2023-04-03T12:29:36;14.62;71.67
75786;DHT22;64402;44.708;37.644;2023-04-03T12:35:02;14.26;73.34
75786;DHT22;64402;44.708;37.644;2023-04-03T12:40:15;14.45;73.26
75786;DHT22;64402;44.708;37.644;2023-04-03T12:45:23;14.52;72.87
75786;DHT22;64402;44.708;37.644;2023-04-03T12:47:52;14.36;73.53
75786;DHT22;64402;44.708;37.644;2023-04-03T12:53:05;14.06;74.67
75786;DHT22;64402;44.708;37.644;2023-04-03T12:55:32;13.80;75.70
75786;DHT22;64402;44.708;37.644;2023-04-03T12:58:19;13.63;76.60
75786;DHT22;64402;44.708;37.644;2023-04-03T13:00:46;13.46;77.17
75786;DHT22;64402;44.708;37.644;2023-04-03T13:03:25;13.38;77.26
75786;DHT22;64402;44.708;37.644;2023-04-03T13:05:58;13.32;77.62
75786;DHT22;64402;44.708;37.644;2023-04-03T13:08:25;13.25;78.18
75786;DHT22;64402;44.708;37.644;2023-04-03T13:11:04;13.20;78.52
75786;DHT22;64402;44.708;37.644;2023-04-03T13:13:31;13.19;78.37
75786;DHT22;64402;44.708;37.644;2023-04-03T13:15:59;13.19;78.34
75786;DHT22;64402;44.708;37.644;2023-04-03T13:18:31;13.19;78.21
75786;DHT22;64402;44.708;37.644;2023-04-03T13:21:03;13.33;78.03
75786;DHT22;64402;44.708;37.644;2023-04-03T13:23:30;13.49;77.76
75786;DHT22;64402;44.708;37.644;2023-04-03T13:25:57;13.49;77.71
75786;DHT22;64402;44.708;37.644;2023-04-03T13:28:30;13.59;76.94
75786;DHT22;64402;44.708;37.644;2023-04-03T13:31:17;13.50;77.77
75786;DHT22;64402;44.708;37.644;2023-04-03T13:36:26;13.37;78.68
75786;DHT22;64402;44.708;37.644;2023-04-03T13:39:03;13.16;79.27
75786;DHT22;64402;44.708;37.644;2023-04-03T13:41:33;13.05;79.90
75786;DHT22;64402;44.708;37.644;2023-04-03T13:47:00;13.03;80.27
75786;DHT22;64402;44.708;37.644;2023-04-03T13:49:39;13.03;80.40
75786;DHT22;64402;44.708;37.644;2023-04-03T13:52:30;12.99;80.46
75786;DHT22;64402;44.708;37.644;2023-04-03T13:54:59;13.05;79.84
75786;DHT22;64402;44.708;37.644;2023-04-03T13:57:27;13.04;79.92
75786;DHT22;64402;44.708;37.644;2023-04-03T13:59:54;13.11;79.81
75786;DHT22;64402;44.708;37.644;2023-04-03T14:02:28;13.04;80.00
75786;DHT22;64402;44.708;37.644;2023-04-03T14:04:58;12.97;80.33
75786;DHT22;64402;44.708;37.644;2023-04-03T14:07:28;12.78;81.01
75786;DHT22;64402;44.708;37.644;2023-04-03T14:09:55;12.66;81.24
75786;DHT22;64402;44.708;37.644;2023-04-03T14:12:33;12.57;81.77
75786;DHT22;64402;44.708;37.644;2023-04-03T14:15:01;12.45;82.31
75786;DHT22;64402;44.708;37.644;2023-04-03T14:17:28;12.45;81.84
75786;DHT22;64402;44.708;37.644;2023-04-03T14:19:55;12.48;81.97
75786;DHT22;64402;44.708;37.644;2023-04-03T14:22:28;12.48;81.79
75786;DHT22;64402;44.708;37.644;2023-04-03T14:24:54;12.42;82.32
75786;DHT22;64402;44.708;37.644;2023-04-03T14:27:24;12.29;82.60
75786;DHT22;64402;44.708;37.644;2023-04-03T14:29:52;12.20;82.72
75786;DHT22;64402;44.708;37.644;2023-04-03T14:32:20;12.18;82.92
75786;DHT22;64402;44.708;37.644;2023-04-03T14:34:47;12.16;82.96
75786;DHT22;64402;44.708;37.644;2023-04-03T14:37:17;12.15;83.21
75786;DHT22;64402;44.708;37.644;2023-04-03T14:39:44;12.12;83.55
75786;DHT22;64402;44.708;37.644;2023-04-03T14:42:17;12.21;83.32
75786;DHT22;64402;44.708;37.644;2023-04-03T14:44:44;12.21;82.76
75786;DHT22;64402;44.708;37.644;2023-04-03T14:47:15;12.21;83.15
75786;DHT22;64402;44.708;37.644;2023-04-03T14:49:42;12.20;82.95
75786;DHT22;64402;44.708;37.644;2023-04-03T14:52:31;12.19;83.24
75786;DHT22;64402;44.708;37.644;2023-04-03T14:54:58;12.19;83.45
75786;DHT22;64402;44.708;37.644;2023-04-03T14:57:28;12.22;83.14
75786;DHT22;64402;44.708;37.644;2023-04-03T14:59:54;12.29;83.20
75786;DHT22;64402;44.708;37.644;2023-04-03T15:02:29;12.32;83.10
75786;DHT22;64402;44.708;37.644;2023-04-03T15:04:56;12.34;83.10
75786;DHT22;64402;44.708;37.644;2023-04-03T15:07:24;12.29;83.32
75786;DHT22;64402;44.708;37.644;2023-04-03T15:09:51;12.23;83.62
75786;DHT22;64402;44.708;37.644;2023-04-03T15:12:17;12.21;83.65
75786;DHT22;64402;44.708;37.644;2023-04-03T15:14:44;12.15;84.07
75786;DHT22;64402;44.708;37.644;2023-04-03T15:17:18;12.12;84.59
75786;DHT22;64402;44.708;37.644;2023-04-03T15:19:46;12.08;84.41
75786;DHT22;64402;44.708;37.644;2023-04-03T15:22:17;12.11;84.64
75786;DHT22;64402;44.708;37.644;2023-04-03T15:24:44;12.12;84.68
75786;DHT22;64402;44.708;37.644;2023-04-03T15:27:11;12.10;84.64
75786;DHT22;64402;44.708;37.644;2023-04-03T15:29:39;12.03;85.01
75786;DHT22;64402;44.708;37.644;2023-04-03T15:32:06;12.04;84.85
75786;DHT22;64402;44.708;37.644;2023-04-03T15:34:32;12.02;85.20
75786;DHT22;64402;44.708;37.644;2023-04-03T15:36:58;12.02;85.38
75786;DHT22;64402;44.708;37.644;2023-04-03T15:39:25;11.98;85.64
75786;DHT22;64402;44.708;37.644;2023-04-03T15:41:51;11.92;86.07
75786;DHT22;64402;44.708;37.644;2023-04-03T15:44:18;11.91;86.19
75786;DHT22;64402;44.708;37.644;2023-04-03T15:46:45;11.90;86.46
75786;DHT22;64402;44.708;37.644;2023-04-03T15:49:12;11.90;86.52
75786;DHT22;64402;44.708;37.644;2023-04-03T15:51:38;11.90;86.49
75786;DHT22;64402;44.708;37.644;2023-04-03T15:54:05;11.94;86.50
75786;DHT22;64402;44.708;37.644;2023-04-03T15:56:31;11.97;86.41
75786;DHT22;64402;44.708;37.644;2023-04-03T15:58:57;11.99;86.38
75786;DHT22;64402;44.708;37.644;2023-04-03T16:01:24;11.97;86.55
75786;DHT22;64402;44.708;37.644;2023-04-03T16:03:50;11.98;86.65
75786;DHT22;64402;44.708;37.644;2023-04-03T16:06:17;11.98;86.62
75786;DHT22;64402;44.708;37.644;2023-04-03T16:08:46;11.97;86.73
75786;DHT22;64402;44.708;37.644;2023-04-03T16:11:16;11.96;86.92
75786;DHT22;64402;44.708;37.644;2023-04-03T16:13:43;12.02;86.70
75786;DHT22;64402;44.708;37.644;2023-04-03T16:16:09;12.01;86.76
75786;DHT22;64402;44.708;37.644;2023-04-03T16:18:36;12.05;86.70
75786;DHT22;64402;44.708;37.644;2023-04-03T16:21:02;12.02;86.72
75786;DHT22;64402;44.708;37.644;2023-04-03T16:23:29;12.02;86.68
75786;DHT22;64402;44.708;37.644;2023-04-03T16:25:55;12.03;86.72
75786;DHT22;64402;44.708;37.644;2023-04-03T16:28:22;12.04;86.67
75786;DHT22;64402;44.708;37.644;2023-04-03T16:30:48;12.04;86.65
75786;DHT22;64402;44.708;37.644;2023-04-03T16:33:15;12.03;86.70
75786;DHT22;64402;44.708;37.644;2023-04-03T16:35:41;12.06;86.60
75786;DHT22;64402;44.708;37.644;2023-04-03T16:38:09;12.06;86.44
75786;DHT22;64402;44.708;37.644;2023-04-03T16:40:36;12.08;86.42
75786;DHT22;64402;44.708;37.644;2023-04-03T16:43:02;12.07;86.34
75786;DHT22;64402;44.708;37.644;2023-04-03T16:45:29;12.10;86.44
75786;DHT22;64402;44.708;37.644;2023-04-03T16:47:55;12.06;86.55
75786;DHT22;64402;44.708;37.644;2023-04-03T16:50:21;12.04;86.68
75786;DHT22;64402;44.708;37.644;2023-04-03T16:52:48;12.05;86.69
75786;DHT22;64402;44.708;37.644;2023-04-03T16:55:14;12.05;86.63
75786;DHT22;64402;44.708;37.644;2023-04-03T16:57:40;12.04;86.80
75786;DHT22;64402;44.708;37.644;2023-04-03T17:00:07;12.04;86.80
75786;DHT22;64402;44.708;37.644;2023-04-03T17:02:34;12.05;86.79
75786;DHT22;64402;44.708;37.644;2023-04-03T17:05:00;12.05;86.89
75786;DHT22;64402;44.708;37.644;2023-04-03T17:07:26;12.04;86.94